Callie M. Etheredge — WDI5093 — position and weather

sailwx.info

Track history (hours):
 
Tides and Currents Weather Stations Pressure Air Temp Water Temp Dewpoint Dewpoint Depression Visibility Wind Speed Wind Dir Waves Ship Positions

Callie M. Etheredge

Owner: Genesis Marine, LLC, Houston, TX. More information available from US FCC via Universal Licensing System.

Last reported at 2017-Dec-11 16:44 UTC. Time now 2017-Dec-12 19:54 UTC.
Position N 29°46' W 095°05'.

Length 24 m; draft 3.3 m.

Type: Ship (hazmat cat B). MMSI: 367705090.

Date/timePositionNaut miles runAvg speedWind from/ knotsBaromVisibWave heightAir tempDewpointWater temp
2017-Dec-11 16:44N 29°46' W 095°05'0 1.8
2017-Dec-11 16:29N 29°46' W 095°06'2 1.1
2017-Dec-11 15:05N 29°47' W 095°04'0 3.6
2017-Dec-11 15:00N 29°47' W 095°05'2 4.5
2017-Dec-11 14:30N 29°45' W 095°04'3 6.5
2017-Dec-11 14:00N 29°42' W 095°01'3 6.6
2017-Dec-11 13:30N 29°40' W 094°58'4 7.6
2017-Dec-11 13:00N 29°36' W 094°57'4 7.6
2017-Dec-11 12:31N 29°33' W 094°55'4 7.2
2017-Dec-11 12:00N 29°30' W 094°52'4 7.0
2017-Dec-11 11:30N 29°27' W 094°51'8 2.8
2017-Dec-11 08:48N 29°27' W 094°42'67 4.1
2017-Dec-10 16:20N 30°04' W 093°37'2 5.1
2017-Dec-10 15:50N 30°04' W 093°34'2 4.9
2017-Dec-10 15:30N 30°04' W 093°32'2 4.6
2017-Dec-10 15:01N 30°04' W 093°29'2 4.9
2017-Dec-10 14:30N 30°04' W 093°27'2 4.0
2017-Dec-10 14:00N 30°04' W 093°24'2 4.5
2017-Dec-10 13:30N 30°04' W 093°22'2 3.2
2017-Dec-10 13:00N 30°05' W 093°20'1 1.4
2017-Dec-10 12:30N 30°05' W 093°20'0 0.1
2017-Dec-10 12:00N 30°05' W 093°20'0 0.0
2017-Dec-10 11:30N 30°05' W 093°20'0 0.1
2017-Dec-10 11:00N 30°05' W 093°20'1 2.2
2017-Dec-10 10:30N 30°06' W 093°20'2 4.8
2017-Dec-10 10:00N 30°09' W 093°20'3 5.0
2017-Dec-10 09:30N 30°11' W 093°19'0 0.5
2017-Dec-10 09:00N 30°11' W 093°19'0 0.1
2017-Dec-10 08:30N 30°11' W 093°19'0 0.0
2017-Dec-10 08:00N 30°11' W 093°19'0 0.0
2017-Dec-10 07:31N 30°11' W 093°19'0 0.0
2017-Dec-10 07:00N 30°11' W 093°19'0 0.0
2017-Dec-10 06:30N 30°11' W 093°19'0 0.0
2017-Dec-10 06:00N 30°11' W 093°19'0 0.0
2017-Dec-10 05:30N 30°11' W 093°19'0 0.0
2017-Dec-10 05:01N 30°11' W 093°19'0 0.0
2017-Dec-10 04:30N 30°11' W 093°19'0 0.0
2017-Dec-10 04:00N 30°11' W 093°19'0 0.0
2017-Dec-10 03:30N 30°11' W 093°19'0 0.0
2017-Dec-10 03:00N 30°11' W 093°19'0 0.0
2017-Dec-10 02:30N 30°11' W 093°19'0 0.0
2017-Dec-10 02:00N 30°11' W 093°19'0 0.0
2017-Dec-10 01:30N 30°11' W 093°19'0 0.0
2017-Dec-10 01:00N 30°11' W 093°19'0 0.0
2017-Dec-10 00:30N 30°11' W 093°19'0 0.0
2017-Dec-10 00:00N 30°11' W 093°19'0 0.0
2017-Dec-09 23:30N 30°11' W 093°19'0 0.0
2017-Dec-09 23:00N 30°11' W 093°19'0 0.0
2017-Dec-09 22:30N 30°11' W 093°19'0 0.0
2017-Dec-09 22:00N 30°11' W 093°19'0 0.0
2017-Dec-09 21:30N 30°11' W 093°19'0 0.0
2017-Dec-09 21:00N 30°11' W 093°19'0 0.0
2017-Dec-09 20:30N 30°11' W 093°19'0 0.0
2017-Dec-09 20:00N 30°11' W 093°19'0 0.0
2017-Dec-09 19:30N 30°11' W 093°19'0 0.0
2017-Dec-09 19:00N 30°11' W 093°19'0 0.0
2017-Dec-09 18:30N 30°11' W 093°19'0 0.0
2017-Dec-09 18:00N 30°11' W 093°19'0 0.0
2017-Dec-09 17:30N 30°11' W 093°19'0 0.0
2017-Dec-09 17:00N 30°11' W 093°19'0 0.0
2017-Dec-09 16:30N 30°11' W 093°19'0 0.0
2017-Dec-09 16:00N 30°11' W 093°19'0 0.0
2017-Dec-09 15:30N 30°11' W 093°19'0 0.0
2017-Dec-09 15:00N 30°11' W 093°19'0 0.0
2017-Dec-09 14:30N 30°11' W 093°19'0 0.0
2017-Dec-09 14:00N 30°11' W 093°19'0 0.0
2017-Dec-09 13:30N 30°11' W 093°19'0 0.0
2017-Dec-09 13:00N 30°11' W 093°19'0 0.0
2017-Dec-09 12:30N 30°11' W 093°19'0 0.0
2017-Dec-09 12:00N 30°11' W 093°19'0 0.0
2017-Dec-09 11:30N 30°11' W 093°19'0 0.0
2017-Dec-09 11:00N 30°11' W 093°19'0 0.0
2017-Dec-09 10:30N 30°11' W 093°19'0 0.0
2017-Dec-09 10:00N 30°11' W 093°19'0 0.0
2017-Dec-09 09:30N 30°11' W 093°19'0 0.0
2017-Dec-09 09:00N 30°11' W 093°19'0 0.0
2017-Dec-09 08:30N 30°11' W 093°19'0 0.0
2017-Dec-09 08:00N 30°11' W 093°19'0 0.0
2017-Dec-09 07:30N 30°11' W 093°19'0 0.0
2017-Dec-09 07:00N 30°11' W 093°19'0 0.0
2017-Dec-09 06:30N 30°11' W 093°19'0 0.0
2017-Dec-09 06:00N 30°11' W 093°19'0 0.0
2017-Dec-09 05:30N 30°11' W 093°19'0 0.0
2017-Dec-09 05:00N 30°11' W 093°19'0 0.0
2017-Dec-09 04:30N 30°11' W 093°19'0 0.0
2017-Dec-09 04:00N 30°11' W 093°19'0 0.0
2017-Dec-09 03:30N 30°11' W 093°19'0 0.0
2017-Dec-09 03:00N 30°11' W 093°19'0 0.0
2017-Dec-09 02:30N 30°11' W 093°19'0 0.0
2017-Dec-09 02:00N 30°11' W 093°19'0 0.0
2017-Dec-09 01:30N 30°11' W 093°19'0 0.0
2017-Dec-09 01:00N 30°11' W 093°19'0 0.2
2017-Dec-09 00:30N 30°11' W 093°18'3 5.1
2017-Dec-09 00:00N 30°09' W 093°20'3 6.8
2017-Dec-08 23:30N 30°05' W 093°20'2 4.7
2017-Dec-08 23:00N 30°04' W 093°21'1 1.3
2017-Dec-08 22:30N 30°04' W 093°21'1 1.9
2017-Dec-08 22:00N 30°05' W 093°20'0 0.0
2017-Dec-08 21:30N 30°05' W 093°20'0 0.0
2017-Dec-08 21:00N 30°05' W 093°20'0 0.0
2017-Dec-08 20:30N 30°05' W 093°20'0 0.0
2017-Dec-08 20:00N 30°05' W 093°20'0 0.0
2017-Dec-08 19:30N 30°05' W 093°20'0 0.0
2017-Dec-08 19:00N 30°05' W 093°20'0 0.0
2017-Dec-08 18:30N 30°05' W 093°20'0 0.0
2017-Dec-08 12:30N 30°05' W 093°20'0 0.0
2017-Dec-08 10:38N 30°05' W 093°20'0 0.0
2017-Dec-08 10:30N 30°05' W 093°20'0 0.0
2017-Dec-08 10:00N 30°05' W 093°20'0 0.0
2017-Dec-08 09:30N 30°05' W 093°20'0 0.0
2017-Dec-08 09:00N 30°05' W 093°20'0 0.0
2017-Dec-08 08:30N 30°05' W 093°20'0 0.0
2017-Dec-08 08:00N 30°05' W 093°20'0 0.0
2017-Dec-08 07:30N 30°05' W 093°20'0 0.0
2017-Dec-08 07:00N 30°05' W 093°20'0 0.0
2017-Dec-08 06:30N 30°05' W 093°20'0 0.1
2017-Dec-08 06:00N 30°05' W 093°20'1 1.2
2017-Dec-08 05:30N 30°05' W 093°20'2 4.0
2017-Dec-08 05:00N 30°07' W 093°20'2 4.3
2017-Dec-08 04:30N 30°10' W 093°20'2 3.5
2017-Dec-08 04:00N 30°11' W 093°19'0 0.0
2017-Dec-08 03:30N 30°11' W 093°19'0 0.0
2017-Dec-08 03:00N 30°11' W 093°19'0 0.0
2017-Dec-08 02:30N 30°11' W 093°19'0 0.0
2017-Dec-08 02:00N 30°11' W 093°19'0 0.0
2017-Dec-08 01:30N 30°11' W 093°19'0 0.0
2017-Dec-08 01:00N 30°11' W 093°19'0 0.0
2017-Dec-08 00:30N 30°11' W 093°19'0 0.0
2017-Dec-08 00:00N 30°11' W 093°19'0 0.0
2017-Dec-07 23:30N 30°11' W 093°19'0 0.0
2017-Dec-07 23:00N 30°11' W 093°19'0 0.0
2017-Dec-07 22:31N 30°11' W 093°19'0 0.0
2017-Dec-07 22:00N 30°11' W 093°19'0 0.0
2017-Dec-07 21:30N 30°11' W 093°19'0 0.0
2017-Dec-07 21:00N 30°11' W 093°19'0 0.0
2017-Dec-07 20:30N 30°11' W 093°19'0 0.0
2017-Dec-07 20:00N 30°11' W 093°19'0 0.0
2017-Dec-07 19:30N 30°11' W 093°19'0 0.0
2017-Dec-07 19:00N 30°11' W 093°19'0 0.0
2017-Dec-07 18:30N 30°11' W 093°19'0 0.0
2017-Dec-07 18:00N 30°11' W 093°19'0 0.0
2017-Dec-07 17:30N 30°11' W 093°19'0 0.0
2017-Dec-07 17:00N 30°11' W 093°19'0 0.0
2017-Dec-07 16:30N 30°11' W 093°19'0 0.0
2017-Dec-07 16:00N 30°11' W 093°19'0 0.0
2017-Dec-07 15:30N 30°11' W 093°19'0 0.0
2017-Dec-07 15:00N 30°11' W 093°19'0 0.0
2017-Dec-07 14:30N 30°11' W 093°19'0 0.0
2017-Dec-07 14:00N 30°11' W 093°19'0 0.0
2017-Dec-07 13:30N 30°11' W 093°19'0 0.0
2017-Dec-07 13:00N 30°11' W 093°19'0 0.0
2017-Dec-07 12:30N 30°11' W 093°19'0 0.0
2017-Dec-07 12:00N 30°11' W 093°19'0 0.0
2017-Dec-07 11:30N 30°11' W 093°19'0 0.0
2017-Dec-07 11:00N 30°11' W 093°19'0 0.0
2017-Dec-07 10:30N 30°11' W 093°19'0 0.0
2017-Dec-07 10:00N 30°11' W 093°19'0 0.0
2017-Dec-07 09:31N 30°11' W 093°19'2 3.3
2017-Dec-07 09:00N 30°10' W 093°19'3 5.9
2017-Dec-07 08:30N 30°07' W 093°20'1 3.0
2017-Dec-07 08:00N 30°05' W 093°20'0 0.0
2017-Dec-07 07:30N 30°05' W 093°20'0 0.0
2017-Dec-07 07:00N 30°05' W 093°20'0 0.0
2017-Dec-07 06:30N 30°05' W 093°20'0 0.0
2017-Dec-07 06:00N 30°05' W 093°20'0 0.0
2017-Dec-07 05:30N 30°05' W 093°20'0 0.0
2017-Dec-07 05:01N 30°05' W 093°20'0 0.0
2017-Dec-07 04:30N 30°05' W 093°20'0 0.0
2017-Dec-07 04:00N 30°05' W 093°20'0 0.2
2017-Dec-07 03:30N 30°05' W 093°20'1 1.3
2017-Dec-07 03:00N 30°06' W 093°19'0 0.0
2017-Dec-07 02:30N 30°06' W 093°19'0 0.0
2017-Dec-07 02:00N 30°06' W 093°19'0 0.1
2017-Dec-06 23:11N 30°06' W 093°19'0 0.4
2017-Dec-06 23:00N 30°06' W 093°19'1 2.9
2017-Dec-06 22:30N 30°05' W 093°18'1 2.6
2017-Dec-06 22:00N 30°04' W 093°16'0 0.0
2017-Dec-06 21:30N 30°04' W 093°16'0 0.0
2017-Dec-06 21:00N 30°04' W 093°16'  
2017-Dec-04 10:30N 29°33' W 090°46'2 4.2
2017-Dec-04 10:00N 29°34' W 090°44'2 3.8
2017-Dec-04 09:30N 29°36' W 090°43'1 2.8
2017-Dec-04 09:00N 29°37' W 090°42'3 6.0
2017-Dec-04 08:30N 29°35' W 090°38'2 4.6
2017-Dec-04 08:00N 29°35' W 090°36'3 5.2
2017-Dec-04 07:30N 29°34' W 090°33'8 6.2
2017-Dec-04 06:09N 29°33' W 090°23'1 4.9
2017-Dec-04 05:59N 29°34' W 090°23'3 5.5
2017-Dec-04 05:30N 29°37' W 090°22'5 6.0
2017-Dec-04 04:44N 29°39' W 090°17'4 5.7
2017-Dec-04 04:06N 29°40' W 090°13'1 6.9
2017-Dec-04 03:55N 29°41' W 090°12'3 7.3
2017-Dec-04 03:29N 29°43' W 090°10'  
Track history (hours):
 
Tides and Currents Weather Stations Pressure Air Temp Water Temp Dewpoint Dewpoint Depression Visibility Wind Speed Wind Dir Waves Ship Positions

Callie M. Etheredge

Owner: Genesis Marine, LLC, Houston, TX. More information available from US FCC via Universal Licensing System.

Last reported at 2017-Dec-11 16:44 UTC. Time now 2017-Dec-12 19:54 UTC.
Position N 29°46' W 095°05'.

Length 24 m; draft 3.3 m.

Type: Ship (hazmat cat B). MMSI: 367705090.

Date/timePositionNaut miles runAvg speedWind from/ knotsBaromVisibWave heightAir tempDewpointWater temp
2017-Dec-11 16:44N 29°46' W 095°05'0 1.8
2017-Dec-11 16:29N 29°46' W 095°06'2 1.1
2017-Dec-11 15:05N 29°47' W 095°04'0 3.6
2017-Dec-11 15:00N 29°47' W 095°05'2 4.5
2017-Dec-11 14:30N 29°45' W 095°04'3 6.5
2017-Dec-11 14:00N 29°42' W 095°01'3 6.6
2017-Dec-11 13:30N 29°40' W 094°58'4 7.6
2017-Dec-11 13:00N 29°36' W 094°57'4 7.6
2017-Dec-11 12:31N 29°33' W 094°55'4 7.2
2017-Dec-11 12:00N 29°30' W 094°52'4 7.0
2017-Dec-11 11:30N 29°27' W 094°51'8 2.8
2017-Dec-11 08:48N 29°27' W 094°42'67 4.1
2017-Dec-10 16:20N 30°04' W 093°37'2 5.1
2017-Dec-10 15:50N 30°04' W 093°34'2 4.9
2017-Dec-10 15:30N 30°04' W 093°32'2 4.6
2017-Dec-10 15:01N 30°04' W 093°29'2 4.9
2017-Dec-10 14:30N 30°04' W 093°27'2 4.0
2017-Dec-10 14:00N 30°04' W 093°24'2 4.5
2017-Dec-10 13:30N 30°04' W 093°22'2 3.2
2017-Dec-10 13:00N 30°05' W 093°20'1 1.4
2017-Dec-10 12:30N 30°05' W 093°20'0 0.1
2017-Dec-10 12:00N 30°05' W 093°20'0 0.0
2017-Dec-10 11:30N 30°05' W 093°20'0 0.1
2017-Dec-10 11:00N 30°05' W 093°20'1 2.2
2017-Dec-10 10:30N 30°06' W 093°20'2 4.8
2017-Dec-10 10:00N 30°09' W 093°20'3 5.0
2017-Dec-10 09:30N 30°11' W 093°19'0 0.5
2017-Dec-10 09:00N 30°11' W 093°19'0 0.1
2017-Dec-10 08:30N 30°11' W 093°19'0 0.0
2017-Dec-10 08:00N 30°11' W 093°19'0 0.0
2017-Dec-10 07:31N 30°11' W 093°19'0 0.0
2017-Dec-10 07:00N 30°11' W 093°19'0 0.0
2017-Dec-10 06:30N 30°11' W 093°19'0 0.0
2017-Dec-10 06:00N 30°11' W 093°19'0 0.0
2017-Dec-10 05:30N 30°11' W 093°19'0 0.0
2017-Dec-10 05:01N 30°11' W 093°19'0 0.0
2017-Dec-10 04:30N 30°11' W 093°19'0 0.0
2017-Dec-10 04:00N 30°11' W 093°19'0 0.0
2017-Dec-10 03:30N 30°11' W 093°19'0 0.0
2017-Dec-10 03:00N 30°11' W 093°19'0 0.0
2017-Dec-10 02:30N 30°11' W 093°19'0 0.0
2017-Dec-10 02:00N 30°11' W 093°19'0 0.0
2017-Dec-10 01:30N 30°11' W 093°19'0 0.0
2017-Dec-10 01:00N 30°11' W 093°19'0 0.0
2017-Dec-10 00:30N 30°11' W 093°19'0 0.0
2017-Dec-10 00:00N 30°11' W 093°19'0 0.0
2017-Dec-09 23:30N 30°11' W 093°19'0 0.0
2017-Dec-09 23:00N 30°11' W 093°19'0 0.0
2017-Dec-09 22:30N 30°11' W 093°19'0 0.0
2017-Dec-09 22:00N 30°11' W 093°19'0 0.0
2017-Dec-09 21:30N 30°11' W 093°19'0 0.0
2017-Dec-09 21:00N 30°11' W 093°19'0 0.0
2017-Dec-09 20:30N 30°11' W 093°19'0 0.0
2017-Dec-09 20:00N 30°11' W 093°19'0 0.0
2017-Dec-09 19:30N 30°11' W 093°19'0 0.0
2017-Dec-09 19:00N 30°11' W 093°19'0 0.0
2017-Dec-09 18:30N 30°11' W 093°19'0 0.0
2017-Dec-09 18:00N 30°11' W 093°19'0 0.0
2017-Dec-09 17:30N 30°11' W 093°19'0 0.0
2017-Dec-09 17:00N 30°11' W 093°19'0 0.0
2017-Dec-09 16:30N 30°11' W 093°19'0 0.0
2017-Dec-09 16:00N 30°11' W 093°19'0 0.0
2017-Dec-09 15:30N 30°11' W 093°19'0 0.0
2017-Dec-09 15:00N 30°11' W 093°19'0 0.0
2017-Dec-09 14:30N 30°11' W 093°19'0 0.0
2017-Dec-09 14:00N 30°11' W 093°19'0 0.0
2017-Dec-09 13:30N 30°11' W 093°19'0 0.0
2017-Dec-09 13:00N 30°11' W 093°19'0 0.0
2017-Dec-09 12:30N 30°11' W 093°19'0 0.0
2017-Dec-09 12:00N 30°11' W 093°19'0 0.0
2017-Dec-09 11:30N 30°11' W 093°19'0 0.0
2017-Dec-09 11:00N 30°11' W 093°19'0 0.0
2017-Dec-09 10:30N 30°11' W 093°19'0 0.0
2017-Dec-09 10:00N 30°11' W 093°19'0 0.0
2017-Dec-09 09:30N 30°11' W 093°19'0 0.0
2017-Dec-09 09:00N 30°11' W 093°19'0 0.0
2017-Dec-09 08:30N 30°11' W 093°19'0 0.0
2017-Dec-09 08:00N 30°11' W 093°19'0 0.0
2017-Dec-09 07:30N 30°11' W 093°19'0 0.0
2017-Dec-09 07:00N 30°11' W 093°19'0 0.0
2017-Dec-09 06:30N 30°11' W 093°19'0 0.0
2017-Dec-09 06:00N 30°11' W 093°19'0 0.0
2017-Dec-09 05:30N 30°11' W 093°19'0 0.0
2017-Dec-09 05:00N 30°11' W 093°19'0 0.0
2017-Dec-09 04:30N 30°11' W 093°19'0 0.0
2017-Dec-09 04:00N 30°11' W 093°19'0 0.0
2017-Dec-09 03:30N 30°11' W 093°19'0 0.0
2017-Dec-09 03:00N 30°11' W 093°19'0 0.0
2017-Dec-09 02:30N 30°11' W 093°19'0 0.0
2017-Dec-09 02:00N 30°11' W 093°19'0 0.0
2017-Dec-09 01:30N 30°11' W 093°19'0 0.0
2017-Dec-09 01:00N 30°11' W 093°19'0 0.2
2017-Dec-09 00:30N 30°11' W 093°18'3 5.1
2017-Dec-09 00:00N 30°09' W 093°20'3 6.8
2017-Dec-08 23:30N 30°05' W 093°20'2 4.7
2017-Dec-08 23:00N 30°04' W 093°21'1 1.3
2017-Dec-08 22:30N 30°04' W 093°21'1 1.9
2017-Dec-08 22:00N 30°05' W 093°20'0 0.0
2017-Dec-08 21:30N 30°05' W 093°20'0 0.0
2017-Dec-08 21:00N 30°05' W 093°20'0 0.0
2017-Dec-08 20:30N 30°05' W 093°20'0 0.0
2017-Dec-08 20:00N 30°05' W 093°20'0 0.0
2017-Dec-08 19:30N 30°05' W 093°20'0 0.0
2017-Dec-08 19:00N 30°05' W 093°20'0 0.0
2017-Dec-08 18:30N 30°05' W 093°20'0 0.0
2017-Dec-08 12:30N 30°05' W 093°20'0 0.0
2017-Dec-08 10:38N 30°05' W 093°20'0 0.0
2017-Dec-08 10:30N 30°05' W 093°20'0 0.0
2017-Dec-08 10:00N 30°05' W 093°20'0 0.0
2017-Dec-08 09:30N 30°05' W 093°20'0 0.0
2017-Dec-08 09:00N 30°05' W 093°20'0 0.0
2017-Dec-08 08:30N 30°05' W 093°20'0 0.0
2017-Dec-08 08:00N 30°05' W 093°20'0 0.0
2017-Dec-08 07:30N 30°05' W 093°20'0 0.0
2017-Dec-08 07:00N 30°05' W 093°20'0 0.0
2017-Dec-08 06:30N 30°05' W 093°20'0 0.1
2017-Dec-08 06:00N 30°05' W 093°20'1 1.2
2017-Dec-08 05:30N 30°05' W 093°20'2 4.0
2017-Dec-08 05:00N 30°07' W 093°20'2 4.3
2017-Dec-08 04:30N 30°10' W 093°20'2 3.5
2017-Dec-08 04:00N 30°11' W 093°19'0 0.0
2017-Dec-08 03:30N 30°11' W 093°19'0 0.0
2017-Dec-08 03:00N 30°11' W 093°19'0 0.0
2017-Dec-08 02:30N 30°11' W 093°19'0 0.0
2017-Dec-08 02:00N 30°11' W 093°19'0 0.0
2017-Dec-08 01:30N 30°11' W 093°19'0 0.0
2017-Dec-08 01:00N 30°11' W 093°19'0 0.0
2017-Dec-08 00:30N 30°11' W 093°19'0 0.0
2017-Dec-08 00:00N 30°11' W 093°19'0 0.0
2017-Dec-07 23:30N 30°11' W 093°19'0 0.0
2017-Dec-07 23:00N 30°11' W 093°19'0 0.0
2017-Dec-07 22:31N 30°11' W 093°19'0 0.0
2017-Dec-07 22:00N 30°11' W 093°19'0 0.0
2017-Dec-07 21:30N 30°11' W 093°19'0 0.0
2017-Dec-07 21:00N 30°11' W 093°19'0 0.0
2017-Dec-07 20:30N 30°11' W 093°19'0 0.0
2017-Dec-07 20:00N 30°11' W 093°19'0 0.0
2017-Dec-07 19:30N 30°11' W 093°19'0 0.0
2017-Dec-07 19:00N 30°11' W 093°19'0 0.0
2017-Dec-07 18:30N 30°11' W 093°19'0 0.0
2017-Dec-07 18:00N 30°11' W 093°19'0 0.0
2017-Dec-07 17:30N 30°11' W 093°19'0 0.0
2017-Dec-07 17:00N 30°11' W 093°19'0 0.0
2017-Dec-07 16:30N 30°11' W 093°19'0 0.0
2017-Dec-07 16:00N 30°11' W 093°19'0 0.0
2017-Dec-07 15:30N 30°11' W 093°19'0 0.0
2017-Dec-07 15:00N 30°11' W 093°19'0 0.0
2017-Dec-07 14:30N 30°11' W 093°19'0 0.0
2017-Dec-07 14:00N 30°11' W 093°19'0 0.0
2017-Dec-07 13:30N 30°11' W 093°19'0 0.0
2017-Dec-07 13:00N 30°11' W 093°19'0 0.0
2017-Dec-07 12:30N 30°11' W 093°19'0 0.0
2017-Dec-07 12:00N 30°11' W 093°19'0 0.0
2017-Dec-07 11:30N 30°11' W 093°19'0 0.0
2017-Dec-07 11:00N 30°11' W 093°19'0 0.0
2017-Dec-07 10:30N 30°11' W 093°19'0 0.0
2017-Dec-07 10:00N 30°11' W 093°19'0 0.0
2017-Dec-07 09:31N 30°11' W 093°19'2 3.3
2017-Dec-07 09:00N 30°10' W 093°19'3 5.9
2017-Dec-07 08:30N 30°07' W 093°20'1 3.0
2017-Dec-07 08:00N 30°05' W 093°20'0 0.0
2017-Dec-07 07:30N 30°05' W 093°20'0 0.0
2017-Dec-07 07:00N 30°05' W 093°20'0 0.0
2017-Dec-07 06:30N 30°05' W 093°20'0 0.0
2017-Dec-07 06:00N 30°05' W 093°20'0 0.0
2017-Dec-07 05:30N 30°05' W 093°20'0 0.0
2017-Dec-07 05:01N 30°05' W 093°20'0 0.0
2017-Dec-07 04:30N 30°05' W 093°20'0 0.0
2017-Dec-07 04:00N 30°05' W 093°20'0 0.2
2017-Dec-07 03:30N 30°05' W 093°20'1 1.3
2017-Dec-07 03:00N 30°06' W 093°19'0 0.0
2017-Dec-07 02:30N 30°06' W 093°19'0 0.0
2017-Dec-07 02:00N 30°06' W 093°19'0 0.1
2017-Dec-06 23:11N 30°06' W 093°19'0 0.4
2017-Dec-06 23:00N 30°06' W 093°19'1 2.9
2017-Dec-06 22:30N 30°05' W 093°18'1 2.6
2017-Dec-06 22:00N 30°04' W 093°16'0 0.0
2017-Dec-06 21:30N 30°04' W 093°16'0 0.0
2017-Dec-06 21:00N 30°04' W 093°16'  
2017-Dec-04 10:30N 29°33' W 090°46'2 4.2
2017-Dec-04 10:00N 29°34' W 090°44'2 3.8
2017-Dec-04 09:30N 29°36' W 090°43'1 2.8
2017-Dec-04 09:00N 29°37' W 090°42'3 6.0
2017-Dec-04 08:30N 29°35' W 090°38'2 4.6
2017-Dec-04 08:00N 29°35' W 090°36'3 5.2
2017-Dec-04 07:30N 29°34' W 090°33'8 6.2
2017-Dec-04 06:09N 29°33' W 090°23'1 4.9
2017-Dec-04 05:59N 29°34' W 090°23'3 5.5
2017-Dec-04 05:30N 29°37' W 090°22'5 6.0
2017-Dec-04 04:44N 29°39' W 090°17'4 5.7
2017-Dec-04 04:06N 29°40' W 090°13'1 6.9
2017-Dec-04 03:55N 29°41' W 090°12'3 7.3
2017-Dec-04 03:29N 29°43' W 090°10'  

Dump ship's entire track history